createdAt,value
2023-09-08T00:01:06.121Z,18.58
2023-09-08T00:06:09.714Z,14.07
2023-09-08T00:11:13.245Z,12.30
2023-09-08T00:16:18.437Z,12.00
2023-09-08T00:21:22.025Z,16.33
2023-09-08T00:26:25.583Z,15.63
2023-09-08T00:31:30.579Z,13.75
2023-09-08T00:36:34.657Z,17.50
2023-09-08T00:41:38.291Z,14.93
2023-09-08T00:46:43.328Z,20.02
2023-09-08T00:51:47.116Z,16.35
2023-09-08T00:56:54.948Z,15.55
2023-09-08T01:02:00.077Z,18.45
2023-09-08T01:07:04.782Z,14.80
2023-09-08T01:12:09.820Z,12.63
2023-09-08T01:17:14.784Z,16.88
2023-09-08T01:22:53.302Z,15.60
2023-09-08T01:28:02.406Z,13.95
2023-09-08T01:33:07.015Z,21.58
2023-09-08T01:38:10.717Z,13.80
2023-09-08T01:43:15.944Z,15.60
2023-09-08T01:48:19.482Z,15.30
2023-09-08T01:53:23.036Z,14.95
2023-09-08T01:58:27.948Z,21.77
2023-09-08T02:03:32.106Z,21.58
2023-09-08T02:08:37.508Z,18.58
2023-09-08T02:13:45.615Z,15.52
2023-09-08T02:18:49.237Z,20.67
2023-09-08T02:23:52.879Z,16.60
2023-09-08T02:28:57.883Z,18.00
2023-09-08T02:34:02.602Z,21.30
2023-09-08T02:39:08.221Z,18.27
2023-09-08T02:44:13.492Z,16.40
2023-09-08T02:49:17.091Z,17.75
2023-09-08T02:54:21.411Z,16.38
2023-09-08T02:59:26.479Z,19.98
2023-09-08T03:04:30.067Z,20.13
2023-09-08T03:09:36.145Z,18.10
2023-09-08T03:14:41.077Z,15.98
2023-09-08T03:19:47.601Z,20.30
2023-09-08T03:24:51.416Z,17.35
2023-09-08T03:29:56.297Z,21.77
2023-09-08T03:35:00.460Z,15.75
2023-09-08T03:40:06.718Z,18.58
2023-09-08T03:45:12.425Z,18.48
2023-09-08T03:50:16.344Z,22.35
2023-09-08T03:55:20.119Z,24.13
2023-09-08T04:00:25.114Z,24.27
2023-09-08T04:05:28.980Z,20.80
2023-09-08T04:10:32.698Z,22.73
2023-09-08T04:15:37.772Z,18.73
2023-09-08T04:20:41.782Z,22.08
2023-09-08T04:25:45.332Z,23.77
2023-09-08T04:30:50.484Z,21.30
2023-09-08T04:35:54.556Z,18.35
2023-09-08T04:40:58.397Z,25.50
2023-09-08T04:46:04.850Z,22.88
2023-09-08T04:51:08.928Z,20.40
2023-09-08T04:56:12.605Z,28.98
2023-09-08T05:01:17.678Z,23.27
2023-09-08T05:06:21.489Z,24.35
2023-09-08T05:11:25.315Z,28.35
2023-09-08T05:16:40.462Z,26.58
2023-09-08T05:21:47.612Z,25.20
2023-09-08T05:26:52.142Z,27.27
2023-09-08T05:31:57.185Z,23.95
2023-09-08T05:37:01.301Z,29.67
2023-09-08T05:42:05.364Z,34.53
2023-09-08T05:47:10.472Z,28.38
2023-09-08T05:52:14.211Z,27.58
2023-09-08T05:57:20.955Z,23.58
2023-09-08T06:02:26.162Z,28.63
2023-09-08T06:07:32.960Z,28.48
2023-09-08T06:12:36.779Z,26.00
2023-09-08T06:17:41.966Z,33.17
2023-09-08T06:22:46.069Z,30.70
2023-09-08T06:27:49.796Z,29.52
2023-09-08T06:32:55.482Z,31.65
2023-09-08T06:38:00.136Z,31.45
2023-09-08T06:43:04.395Z,26.25
2023-09-08T06:48:31.487Z,31.35
2023-09-08T06:53:35.264Z,32.78
2023-09-08T06:58:39.050Z,29.80
2023-09-08T07:03:44.388Z,28.77
2023-09-08T07:08:50.733Z,27.58
2023-09-08T07:13:55.645Z,33.15
2023-09-08T07:19:02.059Z,24.05
2023-09-08T07:24:07.838Z,28.02
2023-09-08T07:29:11.626Z,28.10
2023-09-08T07:34:16.714Z,27.27
2023-09-08T07:39:20.494Z,27.38
2023-09-08T07:44:24.289Z,24.23
2023-09-08T07:49:29.371Z,27.00
2023-09-08T07:54:33.018Z,24.25
2023-09-08T07:59:38.029Z,24.13
2023-09-08T08:04:43.254Z,26.35
2023-09-08T08:09:46.880Z,21.58
2023-09-08T08:14:50.550Z,18.73
2023-09-08T08:19:55.964Z,17.08
2023-09-08T08:24:59.535Z,21.05
2023-09-08T08:30:04.855Z,17.60
2023-09-08T08:35:10.542Z,18.27
2023-09-08T08:40:14.744Z,18.35
2023-09-08T08:45:20.923Z,18.85
2023-09-08T08:50:27.996Z,18.52
2023-09-08T08:55:32.855Z,14.50
2023-09-08T09:00:38.850Z,17.42
2023-09-08T09:05:47.949Z,21.58
2023-09-08T09:10:52.985Z,22.17
2023-09-08T09:16:01.439Z,20.15
2023-09-08T09:21:06.610Z,20.50
2023-09-08T09:26:10.379Z,21.13
2023-09-08T09:31:14.136Z,21.83
2023-09-08T09:36:23.439Z,25.80
2023-09-08T09:41:27.137Z,19.60
2023-09-08T09:46:31.120Z,19.85
2023-09-08T09:51:42.955Z,23.70
2023-09-08T09:56:49.653Z,20.50
2023-09-08T10:01:55.499Z,18.35
2023-09-08T10:07:01.190Z,20.27
2023-09-08T10:12:07.096Z,14.85
2023-09-08T10:17:14.498Z,20.35
2023-09-08T10:22:24.404Z,19.30
2023-09-08T10:27:28.338Z,18.47
2023-09-08T10:32:33.176Z,14.18
2023-09-08T10:37:42.596Z,12.20
2023-09-08T10:42:46.238Z,13.77
2023-09-08T10:47:59.544Z,12.68
2023-09-08T10:53:09.290Z,13.40
2023-09-08T10:58:13.176Z,13.20
2023-09-08T11:03:28.148Z,11.75
2023-09-08T11:08:35.035Z,10.77
2023-09-08T11:13:40.905Z,14.48
2023-09-08T11:18:44.706Z,9.30
2023-09-08T11:23:50.030Z,12.05
2023-09-08T11:28:54.696Z,8.73
2023-09-08T11:34:00.673Z,12.07
2023-09-08T11:39:08.796Z,11.27
2023-09-08T11:44:17.760Z,11.93
2023-09-08T11:49:23.916Z,15.90
2023-09-08T11:54:29.979Z,11.75
2023-09-08T11:59:35.736Z,9.40
2023-09-08T12:04:43.130Z,10.32
2023-09-08T12:09:48.571Z,11.77
2023-09-08T12:14:52.147Z,10.32
2023-09-08T12:19:55.661Z,11.73
2023-09-08T12:25:03.134Z,12.38
2023-09-08T12:30:09.599Z,8.95
2023-09-08T12:35:13.203Z,8.57
2023-09-08T12:40:18.962Z,9.32
2023-09-08T12:45:23.931Z,10.27
2023-09-08T12:50:27.592Z,11.07
2023-09-08T12:55:32.502Z,8.20
2023-09-08T13:00:36.171Z,11.20
2023-09-08T13:05:40.886Z,7.85
2023-09-08T13:10:45.908Z,9.57
2023-09-08T13:15:50.795Z,13.13
2023-09-08T13:20:54.409Z,9.82
2023-09-08T13:25:59.383Z,10.02
2023-09-08T13:31:02.948Z,11.90
2023-09-08T13:36:07.210Z,9.07
2023-09-08T13:41:13.429Z,8.85
2023-09-08T13:46:16.985Z,9.98
2023-09-08T13:51:22.073Z,8.98
2023-09-08T13:56:27.620Z,8.70
2023-09-08T14:01:34.438Z,10.07
2023-09-08T14:16:52.642Z,12.25
2023-09-08T14:21:56.216Z,10.05
2023-09-08T14:27:01.117Z,10.57
2023-09-08T14:32:04.998Z,11.73
2023-09-08T14:37:11.320Z,9.85
2023-09-08T14:42:17.119Z,8.23
2023-09-08T14:47:20.675Z,8.68
2023-09-08T14:52:24.806Z,12.65
2023-09-08T14:57:29.790Z,8.23
2023-09-08T15:02:33.616Z,9.77
2023-09-08T15:07:37.216Z,10.38
2023-09-08T15:12:42.206Z,9.80
2023-09-08T15:17:45.767Z,9.10
2023-09-08T15:22:49.860Z,8.93
2023-09-08T15:27:55.135Z,8.38
2023-09-08T15:32:58.778Z,13.23
2023-09-08T15:38:02.942Z,8.07
2023-09-08T15:43:07.907Z,13.32
2023-09-08T15:48:11.706Z,7.90
2023-09-08T15:53:15.306Z,8.88
2023-09-08T15:58:20.186Z,10.52
2023-09-08T16:03:23.932Z,11.70
2023-09-08T16:08:27.779Z,11.23
2023-09-08T16:13:34.369Z,8.57
2023-09-08T16:18:38.243Z,11.43
2023-09-08T16:23:41.797Z,9.60
2023-09-08T16:28:46.867Z,7.95
2023-09-08T16:33:50.624Z,12.80
2023-09-08T16:38:54.234Z,10.40
2023-09-08T16:43:59.104Z,10.77
2023-09-08T16:49:02.669Z,10.20
2023-09-08T16:54:06.590Z,12.40
2023-09-08T16:59:11.604Z,19.63
2023-09-08T17:04:15.318Z,11.35
2023-09-08T17:09:19.399Z,11.25
2023-09-08T17:14:24.770Z,9.23
2023-09-08T17:19:28.347Z,11.38
2023-09-08T17:24:31.980Z,9.93
2023-09-08T17:29:36.925Z,10.55
2023-09-08T17:34:40.454Z,11.75
2023-09-08T17:39:44.032Z,13.68
2023-09-08T17:44:48.885Z,12.25
2023-09-08T17:49:52.475Z,11.13
2023-09-08T17:54:57.718Z,13.60
2023-09-08T18:00:02.921Z,13.13
2023-09-08T18:05:08.629Z,16.02
2023-09-08T18:10:14.248Z,13.45
2023-09-08T18:15:19.440Z,11.25
2023-09-08T18:20:23.025Z,15.63
2023-09-08T18:25:26.577Z,13.35
2023-09-08T18:30:33.066Z,10.95
2023-09-08T18:35:36.707Z,12.63
2023-09-08T18:40:45.619Z,12.35
2023-09-08T18:45:50.724Z,15.73
2023-09-08T18:50:54.293Z,15.75
2023-09-08T18:55:57.916Z,14.30
2023-09-08T19:01:05.668Z,14.27
2023-09-08T19:06:10.966Z,17.40
2023-09-08T19:11:14.608Z,13.75
2023-09-08T19:16:19.528Z,18.20
2023-09-08T19:21:23.188Z,16.08
2023-09-08T19:26:26.833Z,17.35
2023-09-08T19:31:31.810Z,15.02
2023-09-08T19:36:35.448Z,16.02
2023-09-08T19:41:38.970Z,16.80
2023-09-08T19:46:44.146Z,13.57
2023-09-08T19:51:47.890Z,15.05
2023-09-08T19:56:51.486Z,14.70
2023-09-08T20:01:56.524Z,14.60
2023-09-08T20:07:00.011Z,16.35
2023-09-08T20:12:04.188Z,20.70
2023-09-08T20:17:10.657Z,19.10
2023-09-08T20:22:14.298Z,18.02
2023-09-08T20:27:17.878Z,18.77
2023-09-08T20:32:22.769Z,17.50
2023-09-08T20:37:26.337Z,17.80
2023-09-08T20:42:29.944Z,20.20
2023-09-08T20:47:34.881Z,19.73
2023-09-08T20:52:38.572Z,20.38
2023-09-08T20:57:42.136Z,19.77
2023-09-08T21:02:48.005Z,19.38
2023-09-08T21:07:51.731Z,26.25
2023-09-08T21:12:55.263Z,23.50
2023-09-08T21:18:00.287Z,21.25
2023-09-08T21:23:04.319Z,19.92
2023-09-08T21:28:08.078Z,18.05
2023-09-08T21:33:13.430Z,25.02
2023-09-08T21:38:17.439Z,19.60
2023-09-08T21:43:21.105Z,22.95
2023-09-08T21:48:26.053Z,25.15
2023-09-08T21:53:29.680Z,18.88
2023-09-08T21:58:33.215Z,22.77
2023-09-08T22:03:38.617Z,24.60
2023-09-08T22:08:42.641Z,21.52
2023-09-08T22:13:46.433Z,26.92
2023-09-08T22:18:51.436Z,19.63
2023-09-08T22:23:54.955Z,26.02
2023-09-08T22:28:58.586Z,21.80
2023-09-08T22:34:04.367Z,23.58
2023-09-08T22:39:09.858Z,22.58
2023-09-08T22:44:13.818Z,23.80
2023-09-08T22:49:18.723Z,24.75
2023-09-08T22:54:22.371Z,31.02
2023-09-08T22:59:26.160Z,32.97
2023-09-08T23:04:32.201Z,22.52
2023-09-08T23:09:35.745Z,32.60
2023-09-08T23:14:52.383Z,29.17
2023-09-08T23:20:00.918Z,29.08
2023-09-08T23:25:07.057Z,27.45
2023-09-08T23:30:11.655Z,30.00
2023-09-08T23:35:16.846Z,28.73
2023-09-08T23:40:21.892Z,24.15
2023-09-08T23:45:25.556Z,25.63
2023-09-08T23:50:51.712Z,23.65
2023-09-08T23:55:55.606Z,26.45
